createdAt,value
2022-11-17T00:00:09.875Z,8.15
2022-11-17T00:02:44.039Z,8.00
2022-11-17T00:05:15.890Z,8.43
2022-11-17T00:07:46.523Z,8.25
2022-11-17T00:11:02.125Z,7.72
2022-11-17T00:14:25.797Z,7.15
2022-11-17T00:17:26.846Z,7.10
2022-11-17T00:20:52.457Z,6.35
2022-11-17T00:23:51.788Z,7.05
2022-11-17T00:26:30.629Z,6.72
2022-11-17T00:29:00.252Z,6.25
2022-11-17T00:31:48.529Z,5.72
2022-11-17T00:34:19.181Z,6.93
2022-11-17T00:36:48.814Z,6.38
2022-11-17T00:39:20.403Z,5.93
2022-11-17T00:41:48.989Z,5.00
2022-11-17T00:44:17.779Z,5.57
2022-11-17T00:47:06.748Z,5.75
2022-11-17T00:49:36.685Z,5.68
2022-11-17T00:52:05.657Z,5.75
2022-11-17T00:54:35.766Z,5.95
2022-11-17T00:57:04.475Z,6.03
2022-11-17T00:59:32.983Z,5.65
2022-11-17T01:02:01.636Z,6.45
2022-11-17T01:04:30.310Z,6.07
2022-11-17T01:06:59.008Z,5.80
2022-11-17T01:09:27.531Z,5.93
2022-11-17T01:11:57.192Z,5.57
2022-11-17T01:14:26.934Z,5.80
2022-11-17T01:16:55.786Z,4.90
2022-11-17T01:19:25.364Z,5.82
2022-11-17T01:21:53.886Z,5.72
2022-11-17T01:24:22.542Z,5.10
2022-11-17T01:26:51.958Z,5.32
2022-11-17T01:29:21.446Z,5.38
2022-11-17T01:31:52.168Z,7.68
2022-11-17T01:34:20.647Z,5.22
2022-11-17T01:37:06.736Z,5.00
2022-11-17T01:39:35.338Z,5.80
2022-11-17T01:42:06.378Z,5.95
2022-11-17T01:45:18.438Z,4.90
2022-11-17T01:47:51.043Z,5.43
2022-11-17T01:50:29.337Z,5.67
2022-11-17T01:53:00.695Z,6.82
2022-11-17T01:55:36.029Z,5.60
2022-11-17T01:58:09.998Z,6.22
2022-11-17T02:00:39.648Z,5.72
2022-11-17T02:03:08.292Z,5.53
2022-11-17T02:05:44.656Z,5.65
2022-11-17T02:08:13.551Z,5.30
2022-11-17T02:10:44.762Z,5.90
2022-11-17T02:13:17.321Z,5.60
2022-11-17T02:15:47.185Z,5.00
2022-11-17T02:18:15.742Z,4.90
2022-11-17T02:21:14.052Z,5.35
2022-11-17T02:24:09.519Z,4.95
2022-11-17T02:27:19.389Z,5.47
2022-11-17T02:29:56.441Z,4.65
2022-11-17T02:32:30.950Z,5.18
2022-11-17T02:35:10.818Z,5.15
2022-11-17T02:37:45.339Z,5.10
2022-11-17T02:40:19.876Z,5.50
2022-11-17T02:43:21.941Z,5.25
2022-11-17T02:45:55.241Z,4.97
2022-11-17T02:48:28.084Z,5.57
2022-11-17T02:50:58.707Z,4.72
2022-11-17T02:53:29.372Z,4.28
2022-11-17T02:56:01.895Z,4.20
2022-11-17T02:58:30.407Z,4.38
2022-11-17T03:01:28.945Z,4.72
2022-11-17T03:04:18.257Z,4.80
2022-11-17T03:06:55.632Z,4.90
2022-11-17T03:09:36.878Z,4.73
2022-11-17T03:12:11.812Z,4.82
2022-11-17T03:14:52.029Z,4.85
2022-11-17T03:17:28.403Z,5.00
2022-11-17T03:20:03.319Z,4.55
2022-11-17T03:22:38.967Z,4.72
2022-11-17T03:25:11.860Z,4.75
2022-11-17T03:27:44.450Z,4.10
2022-11-17T03:30:14.337Z,4.05
2022-11-17T03:32:51.437Z,3.88
2022-11-17T03:35:24.049Z,3.95
2022-11-17T03:37:55.768Z,4.20
2022-11-17T03:40:27.168Z,3.92
2022-11-17T03:42:59.787Z,3.85
2022-11-17T03:45:31.513Z,4.13
2022-11-17T03:48:08.832Z,4.57
2022-11-17T03:50:39.705Z,4.20
2022-11-17T03:53:08.527Z,4.15
2022-11-17T03:55:43.139Z,3.75
2022-11-17T03:58:16.791Z,4.18
2022-11-17T04:00:45.474Z,4.50
2022-11-17T04:03:16.786Z,4.05
2022-11-17T04:05:45.060Z,4.00
2022-11-17T04:08:13.581Z,3.90
2022-11-17T04:10:55.974Z,4.35
2022-11-17T04:13:41.977Z,4.43
2022-11-17T04:16:10.573Z,3.83
2022-11-17T04:18:40.316Z,3.95
2022-11-17T04:21:08.779Z,3.80
2022-11-17T04:23:37.717Z,4.35
2022-11-17T04:26:23.613Z,4.30
2022-11-17T04:28:52.190Z,4.18
2022-11-17T04:31:23.475Z,4.30
2022-11-17T04:33:54.183Z,3.78
2022-11-17T04:36:24.090Z,4.28
2022-11-17T04:38:54.115Z,3.85
2022-11-17T04:41:41.176Z,4.03
2022-11-17T04:44:11.011Z,4.10
2022-11-17T04:46:41.167Z,4.50
2022-11-17T04:49:10.700Z,3.72
2022-11-17T04:51:39.694Z,4.30
2022-11-17T04:54:09.205Z,4.15
2022-11-17T04:56:38.211Z,3.88
2022-11-17T04:59:07.173Z,3.80
2022-11-17T05:01:36.064Z,3.70
2022-11-17T05:04:06.054Z,4.10
2022-11-17T05:06:37.629Z,3.63
2022-11-17T05:09:08.641Z,3.95
2022-11-17T05:11:54.582Z,3.70
2022-11-17T05:14:24.299Z,3.92
2022-11-17T05:17:10.561Z,3.70
2022-11-17T05:19:41.293Z,3.67
2022-11-17T05:22:29.728Z,3.95
2022-11-17T05:24:58.414Z,3.92
2022-11-17T05:27:26.971Z,3.55
2022-11-17T05:29:55.676Z,3.70
2022-11-17T05:32:23.938Z,3.95
2022-11-17T05:34:52.572Z,3.60
2022-11-17T05:37:22.149Z,3.35
2022-11-17T05:39:50.283Z,3.60
2022-11-17T05:42:18.780Z,3.90
2022-11-17T05:44:48.569Z,3.83
2022-11-17T05:47:17.214Z,4.00
2022-11-17T05:49:45.897Z,3.70
2022-11-17T05:52:14.510Z,3.72
2022-11-17T05:54:46.328Z,3.85
2022-11-17T05:57:18.208Z,3.42
2022-11-17T05:59:50.031Z,4.15
2022-11-17T06:02:21.880Z,3.72
2022-11-17T06:04:51.393Z,3.83
2022-11-17T06:07:20.419Z,3.63
2022-11-17T06:09:52.045Z,3.78
2022-11-17T06:12:24.813Z,4.10
2022-11-17T06:14:53.504Z,4.82
2022-11-17T06:17:26.897Z,4.20
2022-11-17T06:19:58.725Z,3.75
2022-11-17T06:22:27.583Z,4.10
2022-11-17T06:24:57.837Z,3.50
2022-11-17T06:27:26.807Z,3.22
2022-11-17T06:29:56.078Z,4.00
2022-11-17T06:32:24.847Z,3.33
2022-11-17T06:34:56.134Z,3.30
2022-11-17T06:37:25.356Z,3.47
2022-11-17T06:39:54.172Z,3.60
2022-11-17T06:42:44.024Z,3.53
2022-11-17T06:45:12.917Z,3.30
2022-11-17T06:47:41.615Z,3.13
2022-11-17T06:50:11.195Z,3.25
2022-11-17T06:52:41.250Z,3.33
2022-11-17T06:55:10.032Z,3.35
2022-11-17T06:57:39.598Z,3.03
2022-11-17T07:00:11.231Z,3.17
2022-11-17T07:02:41.983Z,3.40
2022-11-17T07:05:10.698Z,3.65
2022-11-17T07:08:22.768Z,3.03
2022-11-17T07:10:54.833Z,4.83
2022-11-17T07:13:24.992Z,3.28
2022-11-17T07:15:53.724Z,3.10
2022-11-17T07:18:22.813Z,2.92
2022-11-17T07:20:51.294Z,2.97
2022-11-17T07:23:19.736Z,2.83
2022-11-17T07:25:48.091Z,2.75
2022-11-17T07:28:16.463Z,2.50
2022-11-17T07:30:45.966Z,6.18
2022-11-17T07:33:14.281Z,3.08
2022-11-17T07:35:43.170Z,2.60
2022-11-17T07:38:11.699Z,2.78
2022-11-17T07:40:40.594Z,3.22
2022-11-17T07:43:09.132Z,2.20
2022-11-17T07:45:38.439Z,2.08
2022-11-17T07:48:08.394Z,2.45
2022-11-17T07:50:39.721Z,2.42
2022-11-17T07:53:08.381Z,2.17
2022-11-17T07:55:36.784Z,2.20
2022-11-17T07:58:05.154Z,2.13
2022-11-17T08:00:34.656Z,2.40
2022-11-17T08:03:04.101Z,2.10
2022-11-17T08:05:41.602Z,2.40
2022-11-17T08:08:13.432Z,2.40
2022-11-17T08:10:42.990Z,2.22
2022-11-17T08:13:12.793Z,2.10
2022-11-17T08:15:43.818Z,2.60
2022-11-17T08:18:12.294Z,2.08
2022-11-17T08:20:41.812Z,2.25
2022-11-17T08:23:10.264Z,2.13
2022-11-17T08:25:38.717Z,1.67
2022-11-17T08:28:06.820Z,1.92
2022-11-17T08:30:37.176Z,1.90
2022-11-17T08:33:05.837Z,1.92
2022-11-17T08:35:37.382Z,2.20
2022-11-17T08:38:07.625Z,1.87
2022-11-17T08:40:35.984Z,1.52
2022-11-17T08:43:05.137Z,1.40
2022-11-17T08:45:33.600Z,1.20
2022-11-17T08:48:02.019Z,1.60
2022-11-17T08:50:30.440Z,1.10
2022-11-17T08:52:59.796Z,1.23
2022-11-17T08:55:29.440Z,1.27
2022-11-17T08:57:57.939Z,1.23
2022-11-17T09:00:26.379Z,1.00
2022-11-17T09:02:54.758Z,1.07
2022-11-17T09:05:24.964Z,1.00
2022-11-17T09:07:53.308Z,1.20
2022-11-17T09:10:21.791Z,1.40
2022-11-17T09:12:51.194Z,1.17
2022-11-17T09:15:19.723Z,1.30
2022-11-17T09:17:48.153Z,1.20
2022-11-17T09:20:17.156Z,1.27
2022-11-17T09:22:45.575Z,1.08
2022-11-17T09:25:14.318Z,1.00
2022-11-17T09:27:42.729Z,1.07
2022-11-17T09:30:12.951Z,0.90
2022-11-17T09:32:41.362Z,0.95
2022-11-17T09:35:10.924Z,1.10
2022-11-17T09:37:39.408Z,1.10
2022-11-17T09:40:10.846Z,1.10
2022-11-17T09:42:41.177Z,5.15
2022-11-17T09:45:19.208Z,1.30
2022-11-17T09:47:51.855Z,1.15
2022-11-17T09:50:54.147Z,1.08
2022-11-17T09:53:52.123Z,1.10
2022-11-17T09:56:21.264Z,1.08
2022-11-17T09:58:57.834Z,1.10
2022-11-17T10:01:38.811Z,1.10
2022-11-17T10:04:18.693Z,1.30
2022-11-17T10:06:54.581Z,1.40
2022-11-17T10:09:44.137Z,1.20
2022-11-17T10:12:19.683Z,1.05
2022-11-17T10:14:52.289Z,1.20
2022-11-17T10:17:22.230Z,1.40
2022-11-17T10:19:50.515Z,1.40
2022-11-17T10:22:34.075Z,1.10
2022-11-17T10:25:02.779Z,1.30
2022-11-17T10:27:33.191Z,1.20
2022-11-17T10:30:07.302Z,1.63
2022-11-17T10:32:50.231Z,1.30
2022-11-17T10:35:34.384Z,1.63
2022-11-17T10:38:09.559Z,1.45
2022-11-17T10:40:57.111Z,1.38
2022-11-17T10:43:30.345Z,1.00
2022-11-17T10:46:00.797Z,1.40
2022-11-17T10:48:32.996Z,1.15
2022-11-17T10:51:02.400Z,1.00
2022-11-17T10:53:43.381Z,1.23
2022-11-17T10:56:16.736Z,1.00
2022-11-17T10:58:59.550Z,1.33
2022-11-17T11:01:33.628Z,1.15
2022-11-17T11:04:06.071Z,1.02
2022-11-17T11:06:36.160Z,1.20
2022-11-17T11:09:08.269Z,1.05
2022-11-17T11:11:45.899Z,1.17
2022-11-17T11:14:19.647Z,1.13
2022-11-17T11:16:50.569Z,1.40
2022-11-17T11:19:22.114Z,1.30
2022-11-17T11:22:24.691Z,0.88
2022-11-17T11:25:15.299Z,1.00
2022-11-17T11:28:11.777Z,0.90
2022-11-17T11:30:55.356Z,0.90
2022-11-17T11:33:35.321Z,0.75
2022-11-17T11:36:33.345Z,0.60
2022-11-17T11:39:14.240Z,0.50
2022-11-17T11:42:21.587Z,0.85
2022-11-17T11:45:12.082Z,0.50
2022-11-17T11:48:07.155Z,0.50
2022-11-17T11:50:42.060Z,0.50
2022-11-17T11:53:21.753Z,0.33
2022-11-17T11:55:59.995Z,0.45
2022-11-17T11:58:31.827Z,0.50
2022-11-17T12:01:09.334Z,0.40
2022-11-17T12:04:18.237Z,0.60
2022-11-17T12:06:59.994Z,0.70
2022-11-17T12:09:50.859Z,0.63
2022-11-17T12:12:29.896Z,0.50
2022-11-17T12:15:38.788Z,0.93
2022-11-17T12:18:15.858Z,0.60
2022-11-17T12:20:58.934Z,0.47
2022-11-17T12:23:56.045Z,0.60
2022-11-17T12:26:28.689Z,0.50
2022-11-17T12:29:26.954Z,0.70
2022-11-17T12:31:56.808Z,0.80
2022-11-17T12:34:31.694Z,0.53
2022-11-17T12:37:22.958Z,0.90
2022-11-17T12:39:57.682Z,0.68
2022-11-17T12:42:27.423Z,1.40
2022-11-17T12:45:06.654Z,0.70
2022-11-17T12:47:36.803Z,0.60
2022-11-17T12:50:28.510Z,0.75
2022-11-17T12:53:13.746Z,0.63
2022-11-17T12:55:56.260Z,0.73
2022-11-17T12:58:34.930Z,0.60
2022-11-17T13:01:12.042Z,0.60
2022-11-17T13:03:47.939Z,0.63
2022-11-17T13:06:34.827Z,0.70
2022-11-17T13:09:07.408Z,0.60
2022-11-17T13:11:36.616Z,0.60
2022-11-17T13:14:11.668Z,0.90
2022-11-17T13:16:46.343Z,1.00
2022-11-17T13:19:34.872Z,1.05
2022-11-17T13:22:05.729Z,0.80
2022-11-17T13:24:37.020Z,0.77
2022-11-17T13:27:08.190Z,0.77
2022-11-17T13:29:37.967Z,0.75
2022-11-17T13:32:28.448Z,0.73
2022-11-17T13:35:00.538Z,0.90
2022-11-17T13:37:31.207Z,0.82
2022-11-17T13:40:02.631Z,0.80
2022-11-17T13:42:35.606Z,1.02
2022-11-17T13:45:06.619Z,1.00
2022-11-17T13:47:46.653Z,0.90
2022-11-17T13:50:33.686Z,0.75
2022-11-17T13:53:04.420Z,0.80
2022-11-17T13:55:33.365Z,0.80
2022-11-17T13:58:03.599Z,0.93
2022-11-17T14:00:34.420Z,1.10
2022-11-17T14:03:04.539Z,1.00
2022-11-17T14:05:34.450Z,1.00
2022-11-17T14:08:14.505Z,0.90
2022-11-17T14:10:42.882Z,0.90
2022-11-17T14:13:22.910Z,1.02
2022-11-17T14:15:59.217Z,0.90
2022-11-17T14:18:30.768Z,0.90
2022-11-17T14:21:10.562Z,0.82
2022-11-17T14:23:39.328Z,1.10
2022-11-17T14:26:17.599Z,1.20
2022-11-17T14:28:46.196Z,1.20
2022-11-17T14:31:15.819Z,1.00
2022-11-17T14:33:45.003Z,0.82
2022-11-17T14:36:15.790Z,1.00
2022-11-17T14:38:46.879Z,1.08
2022-11-17T14:41:18.839Z,1.30
2022-11-17T14:43:47.461Z,1.30
2022-11-17T14:46:22.097Z,1.63
2022-11-17T14:48:50.855Z,1.80
2022-11-17T14:51:19.725Z,1.67
2022-11-17T14:53:48.629Z,1.33
2022-11-17T14:56:20.677Z,1.30
2022-11-17T14:58:53.501Z,1.20
2022-11-17T15:01:25.425Z,1.20
2022-11-17T15:03:55.337Z,1.20
2022-11-17T15:06:24.639Z,1.10
2022-11-17T15:08:57.771Z,1.17
2022-11-17T15:11:27.043Z,1.40
2022-11-17T15:14:05.376Z,1.30
2022-11-17T15:16:35.099Z,1.25
2022-11-17T15:19:03.697Z,1.60
2022-11-17T15:21:32.312Z,1.40
2022-11-17T15:24:02.299Z,1.55
2022-11-17T15:26:30.808Z,1.38
2022-11-17T15:28:59.240Z,1.63
2022-11-17T15:31:27.839Z,1.45
2022-11-17T15:33:57.590Z,1.20
2022-11-17T15:36:26.423Z,1.70
2022-11-17T15:38:54.585Z,1.23
2022-11-17T15:41:23.580Z,1.55
2022-11-17T15:43:58.695Z,2.10
2022-11-17T15:46:27.374Z,3.60
2022-11-17T15:48:58.016Z,3.70
2022-11-17T15:51:29.885Z,1.75
2022-11-17T15:54:00.123Z,2.50
2022-11-17T15:56:29.834Z,3.53
2022-11-17T15:59:03.330Z,3.87
2022-11-17T16:01:33.145Z,5.15
2022-11-17T16:04:07.446Z,7.30
2022-11-17T16:06:37.776Z,7.35
2022-11-17T16:09:35.348Z,8.20
2022-11-17T16:12:12.300Z,6.70
2022-11-17T16:14:42.974Z,8.30
2022-11-17T16:17:11.681Z,7.70
2022-11-17T16:19:41.331Z,6.80
2022-11-17T16:22:10.242Z,7.57
2022-11-17T16:24:38.760Z,6.80
2022-11-17T16:27:07.525Z,6.25
2022-11-17T16:29:36.156Z,5.90
2022-11-17T16:32:04.674Z,5.93
2022-11-17T16:34:33.275Z,5.32
2022-11-17T16:37:02.961Z,5.67
2022-11-17T16:39:31.464Z,5.10
2022-11-17T16:42:01.537Z,5.25
2022-11-17T16:44:30.196Z,5.32
2022-11-17T16:46:58.830Z,4.90
2022-11-17T16:49:31.111Z,4.77
2022-11-17T16:51:59.796Z,5.75
2022-11-17T16:54:29.898Z,6.00
2022-11-17T16:57:01.175Z,6.07
2022-11-17T16:59:30.103Z,7.45
2022-11-17T17:01:58.456Z,7.13
2022-11-17T17:04:27.008Z,7.80
2022-11-17T17:06:55.716Z,11.68
2022-11-17T17:09:28.225Z,8.63
2022-11-17T17:11:58.251Z,7.53
2022-11-17T17:14:26.911Z,7.20
2022-11-17T17:16:57.867Z,6.80
2022-11-17T17:19:28.592Z,8.00
2022-11-17T17:21:58.201Z,7.80
2022-11-17T17:24:27.626Z,8.38
2022-11-17T17:26:56.221Z,7.67
2022-11-17T17:29:25.763Z,8.75
2022-11-17T17:31:54.209Z,8.18
2022-11-17T17:34:22.611Z,9.02
2022-11-17T17:36:51.070Z,8.40
2022-11-17T17:39:19.389Z,7.60
2022-11-17T17:41:47.687Z,7.03
2022-11-17T17:44:17.571Z,8.43
2022-11-17T17:46:48.714Z,7.95
2022-11-17T17:49:18.988Z,8.68
2022-11-17T17:51:48.011Z,8.00
2022-11-17T17:54:18.022Z,7.05
2022-11-17T17:56:46.729Z,6.68
2022-11-17T17:59:15.944Z,6.88
2022-11-17T18:01:46.139Z,7.57
2022-11-17T18:04:16.753Z,7.10
2022-11-17T18:06:48.116Z,9.05
2022-11-17T18:09:20.447Z,8.70
2022-11-17T18:11:51.165Z,9.80
2022-11-17T18:14:22.382Z,10.52
2022-11-17T18:16:50.945Z,10.40
2022-11-17T18:19:20.985Z,9.45
2022-11-17T18:21:49.208Z,10.15
2022-11-17T18:24:17.661Z,8.48
2022-11-17T18:26:46.107Z,6.97
2022-11-17T18:29:16.082Z,6.43
2022-11-17T18:31:46.724Z,6.80
2022-11-17T18:34:17.054Z,7.05
2022-11-17T18:36:46.709Z,7.60
2022-11-17T18:39:16.226Z,6.30
2022-11-17T18:41:46.232Z,5.50
2022-11-17T18:44:14.753Z,5.95
2022-11-17T18:46:43.239Z,7.10
2022-11-17T18:49:11.764Z,6.22
2022-11-17T18:51:41.185Z,6.90
2022-11-17T18:54:12.948Z,6.87
2022-11-17T18:56:41.464Z,6.47
2022-11-17T18:59:12.269Z,6.28
2022-11-17T19:01:41.791Z,5.57
2022-11-17T19:04:10.295Z,5.60
2022-11-17T19:06:38.872Z,6.70
2022-11-17T19:09:08.249Z,5.25
2022-11-17T19:11:37.900Z,4.57
2022-11-17T19:14:06.375Z,4.15
2022-11-17T19:16:42.647Z,4.78
2022-11-17T19:19:13.164Z,3.67
2022-11-17T19:21:42.060Z,3.80
2022-11-17T19:24:10.844Z,6.45
2022-11-17T19:26:40.231Z,4.43
2022-11-17T19:29:16.003Z,4.68
2022-11-17T19:31:45.516Z,4.23
2022-11-17T19:34:13.700Z,3.72
2022-11-17T19:36:42.221Z,3.97
2022-11-17T19:39:10.553Z,3.75
2022-11-17T19:41:40.746Z,3.75
2022-11-17T19:44:10.281Z,3.80
2022-11-17T19:46:38.977Z,3.65
2022-11-17T19:49:08.797Z,3.50
2022-11-17T19:51:38.192Z,3.50
2022-11-17T19:54:08.396Z,3.83
2022-11-17T19:56:38.659Z,4.30
2022-11-17T19:59:15.712Z,4.13
2022-11-17T20:01:45.770Z,5.30
2022-11-17T20:04:14.385Z,4.47
2022-11-17T20:06:42.900Z,4.60
2022-11-17T20:09:13.378Z,4.53
2022-11-17T20:11:42.534Z,3.90
2022-11-17T20:14:12.230Z,4.35
2022-11-17T20:16:40.670Z,4.18
2022-11-17T20:19:10.186Z,11.82
2022-11-17T20:21:38.714Z,7.37
2022-11-17T20:24:07.360Z,4.13
2022-11-17T20:26:40.456Z,2.88
2022-11-17T20:29:09.061Z,2.20
2022-11-17T20:31:38.540Z,2.13
2022-11-17T20:34:06.714Z,2.00
2022-11-17T20:36:36.062Z,1.20
2022-11-17T20:39:06.111Z,1.20
2022-11-17T20:41:35.024Z,1.40
2022-11-17T20:44:23.655Z,1.40
2022-11-17T20:46:54.935Z,3.37
2022-11-17T20:49:23.725Z,2.75
2022-11-17T20:51:52.418Z,10.23
2022-11-17T20:54:20.879Z,3.95
2022-11-17T20:56:49.356Z,1.92
2022-11-17T20:59:20.165Z,1.30
2022-11-17T21:01:49.288Z,3.10
2022-11-17T21:04:18.793Z,1.10
2022-11-17T21:06:47.171Z,8.85
2022-11-17T21:09:15.623Z,1.38
2022-11-17T21:12:00.085Z,1.30
2022-11-17T21:14:28.850Z,24.38
2022-11-17T21:17:00.523Z,2.92
2022-11-17T21:19:31.129Z,1.10
2022-11-17T21:22:01.707Z,1.20
2022-11-17T21:24:30.124Z,1.17
2022-11-17T21:26:58.550Z,2.08
2022-11-17T21:29:27.213Z,1.85
2022-11-17T21:31:55.562Z,1.17
2022-11-17T21:34:23.994Z,1.20
2022-11-17T21:36:54.575Z,1.10
2022-11-17T21:39:22.946Z,0.60
2022-11-17T21:41:51.200Z,0.82
2022-11-17T21:44:19.360Z,1.13
2022-11-17T21:46:47.754Z,4.65
2022-11-17T21:49:16.414Z,1.00
2022-11-17T21:51:45.487Z,5.70
2022-11-17T21:54:15.248Z,3.10
2022-11-17T21:56:43.632Z,13.85
2022-11-17T21:59:13.243Z,1.13
2022-11-17T22:01:41.979Z,1.23
2022-11-17T22:04:10.574Z,1.88
2022-11-17T22:06:39.777Z,1.10
2022-11-17T22:09:07.941Z,2.40
2022-11-17T22:11:38.290Z,1.23
2022-11-17T22:14:09.711Z,0.60
2022-11-17T22:16:39.297Z,0.70
2022-11-17T22:19:07.957Z,0.82
2022-11-17T22:21:37.360Z,0.75
2022-11-17T22:24:06.324Z,0.80
2022-11-17T22:26:35.939Z,1.00
2022-11-17T22:29:07.042Z,0.80
2022-11-17T22:31:35.529Z,0.73
2022-11-17T22:34:04.000Z,0.63
2022-11-17T22:36:32.309Z,0.60
2022-11-17T22:39:00.751Z,0.60
2022-11-17T22:41:28.897Z,0.50
2022-11-17T22:43:58.236Z,0.60
2022-11-17T22:46:29.050Z,0.50
2022-11-17T22:48:57.655Z,0.47
2022-11-17T22:51:44.001Z,0.67
2022-11-17T22:54:12.810Z,0.52
2022-11-17T22:56:41.201Z,0.68
2022-11-17T22:59:09.755Z,0.57
2022-11-17T23:01:39.486Z,0.52
2022-11-17T23:04:07.641Z,0.57
2022-11-17T23:06:36.035Z,0.50
2022-11-17T23:09:04.499Z,0.80
2022-11-17T23:11:37.774Z,0.60
2022-11-17T23:14:07.616Z,0.60
2022-11-17T23:16:36.750Z,0.47
2022-11-17T23:19:07.427Z,0.70
2022-11-17T23:21:35.914Z,0.88
2022-11-17T23:24:05.301Z,0.93
2022-11-17T23:26:33.491Z,1.05
2022-11-17T23:29:01.998Z,0.80
2022-11-17T23:31:30.566Z,0.70
2022-11-17T23:33:59.085Z,0.60
2022-11-17T23:36:28.796Z,0.70
2022-11-17T23:38:57.849Z,0.50
2022-11-17T23:41:26.349Z,0.60
2022-11-17T23:43:55.325Z,0.47
2022-11-17T23:46:25.725Z,0.57
2022-11-17T23:48:55.193Z,0.77
2022-11-17T23:51:25.238Z,0.50
2022-11-17T23:53:55.221Z,0.60
2022-11-17T23:56:24.175Z,0.70
2022-11-17T23:58:53.113Z,0.50
